createdAt,value
2023-03-19T00:01:47.768Z,99454.84
2023-03-19T00:04:16.484Z,99458.81
2023-03-19T00:06:44.776Z,99455.03
2023-03-19T00:09:12.451Z,99453.84
2023-03-19T00:11:40.088Z,99458.69
2023-03-19T00:14:07.834Z,99462.44
2023-03-19T00:16:35.438Z,99461.03
2023-03-19T00:19:04.434Z,99456.81
2023-03-19T00:21:32.446Z,99464.53
2023-03-19T00:24:02.471Z,99461.88
2023-03-19T00:26:30.071Z,99460.19
2023-03-19T00:28:57.770Z,99459.19
2023-03-19T00:31:25.897Z,99454.59
2023-03-19T00:33:53.515Z,99459.19
2023-03-19T00:36:21.876Z,99453.31
2023-03-19T00:38:49.451Z,99454.78
2023-03-19T00:41:18.388Z,99457.81
2023-03-19T00:43:47.365Z,99466.75
2023-03-19T00:46:15.119Z,99450.56
2023-03-19T00:48:42.788Z,99452.00
2023-03-19T00:51:10.433Z,99459.47
2023-03-19T00:53:38.008Z,99458.50
2023-03-19T00:56:06.201Z,99460.78
2023-03-19T00:58:33.846Z,99456.44
2023-03-19T01:01:02.421Z,99465.50
2023-03-19T01:03:30.011Z,99459.19
2023-03-19T01:05:58.428Z,99467.25
2023-03-19T01:08:26.718Z,99465.78
2023-03-19T01:10:54.338Z,99458.97
2023-03-19T01:13:21.974Z,99464.88
2023-03-19T01:15:49.551Z,99468.13
2023-03-19T01:18:17.495Z,99473.06
2023-03-19T01:20:45.123Z,99470.72
2023-03-19T01:23:12.713Z,99472.03
2023-03-19T01:25:40.394Z,99472.88
2023-03-19T01:28:09.094Z,99470.47
2023-03-19T01:30:36.655Z,99467.81
2023-03-19T01:33:04.325Z,99468.63
2023-03-19T01:35:32.026Z,99463.22
2023-03-19T01:37:59.614Z,99465.50
2023-03-19T01:40:27.616Z,99463.53
2023-03-19T01:42:55.262Z,99465.38
2023-03-19T01:45:22.820Z,99463.69
2023-03-19T01:47:50.412Z,99455.72
2023-03-19T01:50:18.019Z,99461.84
2023-03-19T01:52:45.976Z,99454.84
2023-03-19T01:55:13.545Z,99452.19
2023-03-19T01:57:41.333Z,99449.66
2023-03-19T02:00:09.016Z,99449.03
2023-03-19T02:02:36.592Z,99451.84
2023-03-19T02:05:05.070Z,99455.72
2023-03-19T02:07:32.642Z,99450.22
2023-03-19T02:10:01.933Z,99455.72
2023-03-19T02:12:29.603Z,99455.06
2023-03-19T02:14:57.158Z,99449.94
2023-03-19T02:17:25.085Z,99446.47
2023-03-19T02:19:52.747Z,99449.91
2023-03-19T02:22:20.673Z,99456.19
2023-03-19T02:24:48.235Z,99451.31
2023-03-19T02:27:15.846Z,99447.31
2023-03-19T02:29:43.766Z,99451.16
2023-03-19T02:32:11.701Z,99448.13
2023-03-19T02:34:39.323Z,99448.56
2023-03-19T02:37:06.880Z,99445.53
2023-03-19T02:39:34.474Z,99452.13
2023-03-19T02:42:02.547Z,99449.13
2023-03-19T02:44:30.134Z,99443.53
2023-03-19T02:46:57.774Z,99453.06
2023-03-19T02:49:25.420Z,99450.16
2023-03-19T02:51:52.948Z,99460.66
2023-03-19T02:54:21.386Z,99451.72
2023-03-19T02:56:49.241Z,99448.78
2023-03-19T02:59:16.979Z,99451.19
2023-03-19T03:01:44.559Z,99446.59
2023-03-19T03:04:12.248Z,99446.91
2023-03-19T03:06:40.232Z,99443.88
2023-03-19T03:09:07.797Z,99441.66
2023-03-19T03:11:35.385Z,99447.84
2023-03-19T03:14:02.939Z,99448.81
2023-03-19T03:16:30.987Z,99444.34
2023-03-19T03:18:59.027Z,99449.94
2023-03-19T03:21:26.563Z,99452.78
2023-03-19T03:23:54.159Z,99453.66
2023-03-19T03:26:22.066Z,99451.97
2023-03-19T03:28:49.611Z,99448.44
2023-03-19T03:31:17.539Z,99447.88
2023-03-19T03:33:45.283Z,99446.78
2023-03-19T03:36:13.429Z,99444.59
2023-03-19T03:38:41.370Z,99449.53
2023-03-19T03:41:09.045Z,99441.84
2023-03-19T03:43:37.038Z,99438.78
2023-03-19T03:46:04.651Z,99436.59
2023-03-19T03:48:32.309Z,99436.91
2023-03-19T03:50:59.868Z,99440.88
2023-03-19T03:53:27.464Z,99439.72
2023-03-19T03:55:55.439Z,99442.97
2023-03-19T03:58:24.183Z,99440.19
2023-03-19T04:00:52.770Z,99443.44
2023-03-19T04:03:20.723Z,99437.97
2023-03-19T04:05:48.323Z,99446.53
2023-03-19T04:08:16.039Z,99440.25
2023-03-19T04:10:43.909Z,99440.94
2023-03-19T04:13:11.668Z,99449.78
2023-03-19T04:15:39.552Z,99449.63
2023-03-19T04:18:07.184Z,99446.72
2023-03-19T04:20:35.441Z,99448.28
2023-03-19T04:23:03.467Z,99444.22
2023-03-19T04:25:31.151Z,99448.16
2023-03-19T04:27:58.726Z,99451.41
2023-03-19T04:30:26.310Z,99448.59
2023-03-19T04:32:54.348Z,99453.66
2023-03-19T04:35:22.982Z,99451.84
2023-03-19T04:37:50.758Z,99446.22
2023-03-19T04:40:18.598Z,99448.63
2023-03-19T04:42:46.214Z,99445.69
2023-03-19T04:45:14.369Z,99444.41
2023-03-19T04:47:42.718Z,99454.69
2023-03-19T04:50:10.654Z,99444.75
2023-03-19T04:52:39.453Z,99455.28
2023-03-19T04:55:07.071Z,99458.75
2023-03-19T04:57:34.838Z,99461.41
2023-03-19T05:00:02.438Z,99460.44
2023-03-19T05:02:30.220Z,99477.28
2023-03-19T05:04:58.194Z,99479.81
2023-03-19T05:07:26.499Z,99478.69
2023-03-19T05:09:54.468Z,99484.75
2023-03-19T05:12:22.006Z,99485.56
2023-03-19T05:14:49.767Z,99489.22
2023-03-19T05:17:17.489Z,99484.00
2023-03-19T05:19:45.020Z,99489.34
2023-03-19T05:22:12.944Z,99501.13
2023-03-19T05:24:40.562Z,99492.56
2023-03-19T05:27:09.535Z,99490.16
2023-03-19T05:29:39.293Z,99503.59
2023-03-19T05:32:08.417Z,99492.38
2023-03-19T05:34:36.371Z,99496.88
2023-03-19T05:37:04.046Z,99502.78
2023-03-19T05:39:31.703Z,99497.75
2023-03-19T05:41:59.261Z,99505.31
2023-03-19T05:44:26.808Z,99511.09
2023-03-19T05:46:54.908Z,99512.66
2023-03-19T05:49:22.468Z,99509.28
2023-03-19T05:51:50.226Z,99513.06
2023-03-19T05:54:17.878Z,99526.38
2023-03-19T05:56:45.491Z,99510.25
2023-03-19T05:59:13.122Z,99514.03
2023-03-19T06:01:40.979Z,99515.28
2023-03-19T06:04:08.798Z,99522.69
2023-03-19T06:06:36.644Z,99520.44
2023-03-19T06:09:04.623Z,99524.22
2023-03-19T06:11:32.724Z,99522.66
2023-03-19T06:14:00.313Z,99524.50
2023-03-19T06:16:28.462Z,99524.34
2023-03-19T06:18:56.324Z,99526.75
2023-03-19T06:21:25.990Z,99527.34
2023-03-19T06:23:53.942Z,99521.59
2023-03-19T06:26:21.530Z,99523.16
2023-03-19T06:28:49.363Z,99525.41
2023-03-19T06:31:17.545Z,99530.91
2023-03-19T06:33:45.173Z,99537.38
2023-03-19T06:36:13.172Z,99530.66
2023-03-19T06:38:40.844Z,99536.25
2023-03-19T06:41:08.613Z,99537.16
2023-03-19T06:43:37.354Z,99533.38
2023-03-19T06:46:05.103Z,99531.31
2023-03-19T06:48:32.711Z,99541.44
2023-03-19T06:51:00.879Z,99540.16
2023-03-19T06:53:29.607Z,99549.44
2023-03-19T06:55:57.162Z,99550.13
2023-03-19T06:58:24.812Z,99544.78
2023-03-19T07:00:52.835Z,99545.88
2023-03-19T07:03:20.790Z,99547.25
2023-03-19T07:05:48.394Z,99550.63
2023-03-19T07:08:16.047Z,99562.72
2023-03-19T07:10:43.672Z,99560.06
2023-03-19T07:13:13.086Z,99562.72
2023-03-19T07:15:41.157Z,99567.25
2023-03-19T07:18:08.925Z,99570.06
2023-03-19T07:20:36.911Z,99572.72
2023-03-19T07:23:04.817Z,99574.56
2023-03-19T07:25:32.803Z,99581.72
2023-03-19T07:28:00.609Z,99571.91
2023-03-19T07:30:28.577Z,99574.41
2023-03-19T07:32:56.646Z,99579.47
2023-03-19T07:35:24.479Z,99579.06
2023-03-19T07:37:52.932Z,99578.31
2023-03-19T07:40:20.708Z,99580.00
2023-03-19T07:42:48.642Z,99577.31
2023-03-19T07:45:16.324Z,99576.16
2023-03-19T07:47:44.019Z,99571.63
2023-03-19T07:50:11.694Z,99576.97
2023-03-19T07:52:39.489Z,99574.97
2023-03-19T07:55:07.328Z,99578.97
2023-03-19T07:57:34.950Z,99584.66
2023-03-19T08:00:03.343Z,99584.16
2023-03-19T08:02:31.693Z,99583.66
2023-03-19T08:05:02.238Z,99584.16
2023-03-19T08:07:30.276Z,99580.41
2023-03-19T08:09:58.483Z,99581.31
2023-03-19T08:12:26.275Z,99579.72
2023-03-19T08:14:54.340Z,99584.25
2023-03-19T08:17:22.209Z,99586.25
2023-03-19T08:19:49.955Z,99594.41
2023-03-19T08:22:17.596Z,99599.22
2023-03-19T08:24:45.388Z,99598.56
2023-03-19T08:27:13.458Z,99598.00
2023-03-19T08:29:41.298Z,99596.47
2023-03-19T08:32:09.095Z,99602.09
2023-03-19T08:34:36.752Z,99595.06
2023-03-19T08:37:04.559Z,99605.78
2023-03-19T08:39:32.341Z,99610.59
2023-03-19T08:42:00.042Z,99616.25
2023-03-19T08:44:29.117Z,99621.22
2023-03-19T08:46:56.799Z,99619.97
2023-03-19T08:49:24.456Z,99630.16
2023-03-19T08:51:52.508Z,99629.75
2023-03-19T08:54:22.823Z,99633.72
2023-03-19T08:56:51.100Z,99627.69
2023-03-19T08:59:19.124Z,99634.41
2023-03-19T09:01:47.096Z,99637.06
2023-03-19T09:04:14.879Z,99644.56
2023-03-19T09:06:43.277Z,99627.50
2023-03-19T09:09:11.216Z,99634.25
2023-03-19T09:11:38.979Z,99643.38
2023-03-19T09:14:07.497Z,99638.28
2023-03-19T09:16:35.630Z,99646.38
2023-03-19T09:19:03.495Z,99644.88
2023-03-19T09:21:31.833Z,99637.44
2023-03-19T09:23:59.534Z,99631.63
2023-03-19T09:26:27.325Z,99638.53
2023-03-19T09:28:55.915Z,99644.19
2023-03-19T09:31:23.928Z,99640.47
2023-03-19T09:33:52.071Z,99640.53
2023-03-19T09:36:20.032Z,99635.97
2023-03-19T09:38:48.332Z,99641.69
2023-03-19T09:41:16.440Z,99644.47
2023-03-19T09:43:44.227Z,99643.78
2023-03-19T09:46:12.239Z,99651.94
2023-03-19T09:48:40.116Z,99655.69
2023-03-19T09:51:07.974Z,99658.66
2023-03-19T09:53:36.699Z,99652.53
2023-03-19T09:56:04.464Z,99658.88
2023-03-19T09:58:32.367Z,99661.28
2023-03-19T10:01:00.379Z,99658.84
2023-03-19T10:03:28.083Z,99664.19
2023-03-19T10:05:56.077Z,99659.81
2023-03-19T10:08:23.924Z,99648.25
2023-03-19T10:10:51.999Z,99650.19
2023-03-19T10:13:20.831Z,99647.38
2023-03-19T10:15:49.281Z,99633.34
2023-03-19T10:18:17.582Z,99634.50
2023-03-19T10:20:45.720Z,99642.06
2023-03-19T10:23:13.705Z,99641.22
2023-03-19T10:25:41.775Z,99636.94
2023-03-19T10:28:09.820Z,99633.47
2023-03-19T10:30:37.935Z,99630.69
2023-03-19T10:33:05.700Z,99643.00
2023-03-19T10:35:38.915Z,99633.75
2023-03-19T10:38:06.904Z,99642.88
2023-03-19T10:40:34.719Z,99649.75
2023-03-19T10:43:03.140Z,99655.31
2023-03-19T10:45:31.103Z,99648.41
2023-03-19T10:47:59.119Z,99652.63
2023-03-19T10:50:27.275Z,99656.34
2023-03-19T10:52:55.069Z,99643.94
2023-03-19T10:55:23.430Z,99658.06
2023-03-19T10:57:51.650Z,99648.41
2023-03-19T11:00:19.961Z,99647.72
2023-03-19T11:02:47.829Z,99650.06
2023-03-19T11:05:16.037Z,99641.22
2023-03-19T11:07:44.292Z,99641.41
2023-03-19T11:10:12.552Z,99641.53
2023-03-19T11:12:40.567Z,99642.25
2023-03-19T11:15:08.744Z,99639.50
2023-03-19T11:17:36.568Z,99638.41
2023-03-19T11:20:04.890Z,99643.44
2023-03-19T11:22:33.279Z,99635.28
2023-03-19T11:25:01.291Z,99651.38
2023-03-19T11:27:30.091Z,99646.31
2023-03-19T11:29:58.045Z,99647.84
2023-03-19T11:32:26.435Z,99643.31
2023-03-19T11:34:54.417Z,99648.56
2023-03-19T11:37:22.779Z,99651.06
2023-03-19T11:39:51.084Z,99667.91
2023-03-19T11:42:20.173Z,99652.69
2023-03-19T11:44:48.234Z,99637.41
2023-03-19T11:47:26.652Z,99634.88
2023-03-19T11:49:55.843Z,99643.63
2023-03-19T11:52:23.874Z,99641.97
2023-03-19T11:54:52.028Z,99647.16
2023-03-19T11:57:20.462Z,99647.28
2023-03-19T11:59:48.343Z,99638.19
2023-03-19T12:02:16.727Z,99641.91
2023-03-19T12:04:44.605Z,99645.09
2023-03-19T12:07:12.533Z,99632.13
2023-03-19T12:09:40.444Z,99630.59
2023-03-19T12:12:08.664Z,99625.00
2023-03-19T12:14:36.955Z,99633.41
2023-03-19T12:17:07.333Z,99632.25
2023-03-19T12:19:35.780Z,99635.78
2023-03-19T12:22:03.490Z,99623.91
2023-03-19T12:24:31.380Z,99628.63
2023-03-19T12:26:59.506Z,99629.38
2023-03-19T12:29:27.514Z,99626.91
2023-03-19T12:31:55.755Z,99636.22
2023-03-19T12:34:24.229Z,99626.97
2023-03-19T12:36:52.104Z,99636.66
2023-03-19T12:39:20.229Z,99644.31
2023-03-19T12:41:48.761Z,99648.59
2023-03-19T12:44:17.733Z,99641.31
2023-03-19T12:46:46.166Z,99648.56
2023-03-19T12:49:14.162Z,99638.25
2023-03-19T12:51:42.537Z,99649.47
2023-03-19T12:54:10.397Z,99650.13
2023-03-19T12:56:38.643Z,99648.69
2023-03-19T12:59:07.683Z,99655.84
2023-03-19T13:01:35.676Z,99652.09
2023-03-19T13:04:04.180Z,99652.78
2023-03-19T13:06:32.541Z,99649.44
2023-03-19T13:09:00.330Z,99644.75
2023-03-19T13:11:28.347Z,99648.41
2023-03-19T13:13:56.224Z,99642.91
2023-03-19T13:16:24.460Z,99646.94
2023-03-19T13:18:53.138Z,99646.91
2023-03-19T13:21:21.470Z,99639.06
2023-03-19T13:23:49.228Z,99646.22
2023-03-19T13:26:17.333Z,99642.91
2023-03-19T13:28:46.726Z,99644.59
2023-03-19T13:31:14.605Z,99650.47
2023-03-19T13:33:42.826Z,99651.66
2023-03-19T13:36:10.688Z,99645.50
2023-03-19T13:38:38.514Z,99647.16
2023-03-19T13:41:06.704Z,99659.81
2023-03-19T13:43:34.544Z,99667.63
2023-03-19T13:46:03.581Z,99666.97
2023-03-19T13:48:31.650Z,99662.78
2023-03-19T13:50:59.374Z,99658.41
2023-03-19T13:53:27.520Z,99658.41
2023-03-19T13:55:55.539Z,99658.75
2023-03-19T13:58:40.868Z,99662.13
2023-03-19T14:01:09.066Z,99660.28
2023-03-19T14:03:37.454Z,99659.88
2023-03-19T14:06:05.665Z,99672.63
2023-03-19T14:08:33.959Z,99671.22
2023-03-19T14:11:02.577Z,99674.56
2023-03-19T14:13:31.619Z,99672.50
2023-03-19T14:15:59.901Z,99671.16
2023-03-19T14:18:27.724Z,99671.31
2023-03-19T14:20:56.045Z,99669.00
2023-03-19T14:23:36.098Z,99661.78
2023-03-19T14:26:06.748Z,99671.25
2023-03-19T14:28:34.675Z,99668.56
2023-03-19T14:31:02.867Z,99672.28
2023-03-19T14:33:30.970Z,99673.97
2023-03-19T14:35:59.005Z,99672.78
2023-03-19T14:38:27.076Z,99672.63
2023-03-19T14:40:55.015Z,99676.13
2023-03-19T14:43:23.107Z,99670.28
2023-03-19T14:45:51.410Z,99672.72
2023-03-19T14:48:19.285Z,99662.97
2023-03-19T14:50:47.266Z,99668.34
2023-03-19T14:53:15.143Z,99666.66
2023-03-19T14:55:43.065Z,99673.41
2023-03-19T14:58:11.575Z,99671.41
2023-03-19T15:00:39.391Z,99667.19
2023-03-19T15:03:07.609Z,99670.38
2023-03-19T15:05:36.687Z,99674.56
2023-03-19T15:08:04.728Z,99670.84
2023-03-19T15:10:33.072Z,99681.53
2023-03-19T15:13:01.281Z,99689.69
2023-03-19T15:15:30.875Z,99686.13
2023-03-19T15:18:03.770Z,99689.72
2023-03-19T15:20:32.298Z,99693.47
2023-03-19T15:23:00.090Z,99696.25
2023-03-19T15:25:27.918Z,99692.25
2023-03-19T15:27:55.942Z,99693.66
2023-03-19T15:30:24.772Z,99694.38
2023-03-19T15:33:07.821Z,99696.44
2023-03-19T15:35:39.564Z,99698.53
2023-03-19T15:38:07.363Z,99698.31
2023-03-19T15:40:36.877Z,99704.13
2023-03-19T15:43:05.131Z,99700.78
2023-03-19T15:45:34.059Z,99699.78
2023-03-19T15:48:02.747Z,99699.44
2023-03-19T15:50:30.707Z,99705.06
2023-03-19T15:52:58.558Z,99699.69
2023-03-19T15:55:26.626Z,99716.31
2023-03-19T15:57:56.567Z,99717.81
2023-03-19T16:00:25.149Z,99714.00
2023-03-19T16:02:53.054Z,99705.03
2023-03-19T16:05:23.059Z,99708.47
2023-03-19T16:07:54.792Z,99710.22
2023-03-19T16:10:22.727Z,99714.50
2023-03-19T16:12:51.630Z,99713.56
2023-03-19T16:15:19.842Z,99721.47
2023-03-19T16:17:49.542Z,99714.09
2023-03-19T16:20:17.547Z,99727.06
2023-03-19T16:22:45.443Z,99724.06
2023-03-19T16:25:13.835Z,99736.63
2023-03-19T16:27:43.242Z,99728.88
2023-03-19T16:30:11.215Z,99737.56
2023-03-19T16:32:39.388Z,99727.59
2023-03-19T16:35:07.361Z,99740.94
2023-03-19T16:37:35.553Z,99735.50
2023-03-19T16:40:04.944Z,99749.72
2023-03-19T16:42:32.803Z,99749.31
2023-03-19T16:45:00.755Z,99755.97
2023-03-19T16:47:28.800Z,99751.91
2023-03-19T16:49:56.638Z,99754.22
2023-03-19T16:52:24.528Z,99749.44
2023-03-19T16:54:53.161Z,99755.44
2023-03-19T16:57:21.131Z,99758.41
2023-03-19T16:59:49.000Z,99756.59
2023-03-19T17:02:18.667Z,99753.91
2023-03-19T17:04:46.753Z,99755.06
2023-03-19T17:07:14.584Z,99758.03
2023-03-19T17:09:42.650Z,99761.31
2023-03-19T17:12:10.607Z,99760.25
2023-03-19T17:14:38.990Z,99766.78
2023-03-19T17:17:07.075Z,99774.34
2023-03-19T17:19:35.303Z,99778.47
2023-03-19T17:22:03.371Z,99784.31
2023-03-19T17:24:31.526Z,99780.25
2023-03-19T17:26:59.982Z,99783.25
2023-03-19T17:29:28.007Z,99781.75
2023-03-19T17:31:55.940Z,99790.78
2023-03-19T17:34:23.890Z,99799.81
2023-03-19T17:36:51.774Z,99803.19
2023-03-19T17:39:20.556Z,99801.22
2023-03-19T17:41:48.419Z,99801.91
2023-03-19T17:44:16.588Z,99801.78
2023-03-19T17:46:44.543Z,99821.16
2023-03-19T17:49:12.606Z,99813.00
2023-03-19T17:51:40.717Z,99819.75
2023-03-19T17:54:08.800Z,99821.88
2023-03-19T17:56:36.695Z,99822.41
2023-03-19T17:59:04.524Z,99827.31
2023-03-19T18:01:32.582Z,99837.72
2023-03-19T18:04:00.979Z,99836.41
2023-03-19T18:06:30.754Z,99842.16
2023-03-19T18:08:58.828Z,99849.59
2023-03-19T18:11:26.659Z,99846.22
2023-03-19T18:13:54.638Z,99850.19
2023-03-19T18:16:23.148Z,99851.41
2023-03-19T18:18:51.177Z,99848.88
2023-03-19T18:21:19.014Z,99853.25
2023-03-19T18:23:46.972Z,99862.94
2023-03-19T18:26:17.237Z,99865.47
2023-03-19T18:28:46.310Z,99863.53
2023-03-19T18:31:15.129Z,99868.72
2023-03-19T18:33:43.015Z,99869.56
2023-03-19T18:36:10.972Z,99868.59
2023-03-19T18:38:38.876Z,99871.25
2023-03-19T18:41:07.234Z,99865.91
2023-03-19T18:43:35.071Z,99873.94
2023-03-19T18:46:03.448Z,99872.25
2023-03-19T18:48:32.203Z,99871.53
2023-03-19T18:51:00.382Z,99883.16
2023-03-19T18:53:30.526Z,99879.81
2023-03-19T18:55:58.783Z,99888.78
2023-03-19T18:58:27.085Z,99885.41
2023-03-19T19:00:55.358Z,99884.56
2023-03-19T19:03:23.556Z,99893.44
2023-03-19T19:05:54.622Z,99890.75
2023-03-19T19:08:22.893Z,99908.47
2023-03-19T19:10:50.946Z,99897.78
2023-03-19T19:13:19.287Z,99902.03
2023-03-19T19:15:47.293Z,99909.88
2023-03-19T19:18:15.595Z,99915.09
2023-03-19T19:20:43.413Z,99919.31
2023-03-19T19:23:11.648Z,99919.03
2023-03-19T19:25:39.632Z,99915.28
2023-03-19T19:28:07.571Z,99922.03
2023-03-19T19:30:36.279Z,99929.06
2023-03-19T19:33:04.951Z,99925.28
2023-03-19T19:35:33.493Z,99927.97
2023-03-19T19:38:01.556Z,99935.81
2023-03-19T19:40:29.384Z,99936.69
2023-03-19T19:42:57.841Z,99942.88
2023-03-19T19:45:26.233Z,99943.59
2023-03-19T19:47:54.123Z,99944.41
2023-03-19T19:50:22.357Z,99949.63
2023-03-19T19:52:50.325Z,99950.50
2023-03-19T19:55:18.467Z,99947.81
2023-03-19T19:57:47.981Z,99955.84
2023-03-19T20:00:15.988Z,99954.16
2023-03-19T20:02:43.871Z,99951.47
2023-03-19T20:05:11.629Z,99956.81
2023-03-19T20:07:39.664Z,99960.59
2023-03-19T20:10:07.577Z,99958.75
2023-03-19T20:12:35.508Z,99957.06
2023-03-19T20:15:03.535Z,99961.72
2023-03-19T20:17:31.318Z,99954.69
2023-03-19T20:19:59.311Z,99960.03
2023-03-19T20:22:27.568Z,99959.16
2023-03-19T20:24:55.349Z,99963.69
2023-03-19T20:27:23.256Z,99965.38
2023-03-19T20:29:51.682Z,99964.50
2023-03-19T20:32:19.480Z,99971.69
2023-03-19T20:34:47.397Z,99972.63
2023-03-19T20:37:15.402Z,99973.63
2023-03-19T20:39:44.406Z,99979.94
2023-03-19T20:42:12.159Z,99979.94
2023-03-19T20:44:40.699Z,99984.31
2023-03-19T20:47:08.696Z,99989.66
2023-03-19T20:49:36.423Z,99988.66
2023-03-19T20:52:04.474Z,99996.56
2023-03-19T20:54:32.329Z,99995.56
2023-03-19T20:57:00.493Z,99990.09
2023-03-19T20:59:29.261Z,99995.44
2023-03-19T21:01:57.753Z,99989.00
2023-03-19T21:04:25.691Z,100000.50
2023-03-19T21:06:54.486Z,100006.59
2023-03-19T21:09:23.128Z,100006.59
2023-03-19T21:11:52.415Z,100006.44
2023-03-19T21:14:23.637Z,100012.63
2023-03-19T21:16:51.345Z,100017.28
2023-03-19T21:19:19.129Z,100016.53
2023-03-19T21:21:49.244Z,100026.53
2023-03-19T21:24:17.787Z,100025.13
2023-03-19T21:26:46.465Z,100028.03
2023-03-19T21:29:14.352Z,100028.44
2023-03-19T21:31:43.012Z,100029.41
2023-03-19T21:34:11.587Z,100030.50
2023-03-19T21:36:39.851Z,100025.44
2023-03-19T21:39:07.678Z,100026.56
2023-03-19T21:41:36.331Z,100032.16
2023-03-19T21:44:04.760Z,100036.75
2023-03-19T21:46:32.833Z,100036.06
2023-03-19T21:49:00.650Z,100043.38
2023-03-19T21:51:28.861Z,100041.66
2023-03-19T21:53:56.645Z,100040.94
2023-03-19T21:56:24.695Z,100040.09
2023-03-19T21:58:53.181Z,100040.22
2023-03-19T22:01:21.317Z,100034.03
2023-03-19T22:03:49.237Z,100033.19
2023-03-19T22:06:19.364Z,100041.31
2023-03-19T22:08:48.353Z,100043.00
2023-03-19T22:11:16.510Z,100047.53
2023-03-19T22:13:44.865Z,100039.63
2023-03-19T22:16:13.055Z,100050.31
2023-03-19T22:18:40.842Z,100053.97
2023-03-19T22:21:09.493Z,100060.28
2023-03-19T22:23:37.744Z,100057.72
2023-03-19T22:26:05.689Z,100053.25
2023-03-19T22:28:33.872Z,100051.41
2023-03-19T22:31:01.995Z,100053.25
2023-03-19T22:33:29.765Z,100045.25
2023-03-19T22:35:57.844Z,100047.06
2023-03-19T22:38:25.646Z,100054.25
2023-03-19T22:40:53.342Z,100049.72
2023-03-19T22:43:21.174Z,100044.50
2023-03-19T22:45:48.930Z,100052.50
2023-03-19T22:48:18.122Z,100053.66
2023-03-19T22:50:46.002Z,100051.22
2023-03-19T22:53:13.680Z,100058.41
2023-03-19T22:55:41.682Z,100052.19
2023-03-19T22:58:09.627Z,100055.72
2023-03-19T23:00:37.766Z,100055.72
2023-03-19T23:03:05.496Z,100063.00
2023-03-19T23:05:33.679Z,100065.66
2023-03-19T23:08:02.314Z,100062.28
2023-03-19T23:10:30.833Z,100058.91
2023-03-19T23:12:59.295Z,100065.22
2023-03-19T23:15:27.237Z,100060.97
2023-03-19T23:17:56.021Z,100071.78
2023-03-19T23:20:24.060Z,100077.38
2023-03-19T23:22:51.672Z,100079.34
2023-03-19T23:25:19.327Z,100068.91
2023-03-19T23:27:47.021Z,100075.31
2023-03-19T23:30:14.623Z,100082.75
2023-03-19T23:32:42.678Z,100092.00
2023-03-19T23:35:10.815Z,100087.84
2023-03-19T23:37:39.411Z,100082.91
2023-03-19T23:40:07.301Z,100091.16
2023-03-19T23:42:34.981Z,100092.38
2023-03-19T23:45:03.883Z,100093.47
2023-03-19T23:47:31.817Z,100093.00
2023-03-19T23:49:59.498Z,100100.50
2023-03-19T23:52:27.268Z,100104.13
2023-03-19T23:54:54.899Z,100102.56
2023-03-19T23:57:23.170Z,100107.19
2023-03-19T23:59:51.085Z,100103.81
